sensor_id;sensor_type;location;lat;lon;timestamp;P1;durP1;ratioP1;P2;durP2;ratioP2
17564;SDS011;62994;52.126;5.596;2024-01-30T00:00:29;11.05;;;10.13;;
17564;SDS011;62994;52.126;5.596;2024-01-30T00:02:56;12.45;;;10.85;;
17564;SDS011;62994;52.126;5.596;2024-01-30T00:05:23;10.93;;;9.93;;
17564;SDS011;62994;52.126;5.596;2024-01-30T00:07:51;10.52;;;9.43;;
17564;SDS011;62994;52.126;5.596;2024-01-30T00:10:18;11.23;;;10.13;;
17564;SDS011;62994;52.126;5.596;2024-01-30T00:12:45;10.30;;;9.50;;
17564;SDS011;62994;52.126;5.596;2024-01-30T00:15:12;10.93;;;9.77;;
17564;SDS011;62994;52.126;5.596;2024-01-30T00:17:40;11.65;;;10.50;;
17564;SDS011;62994;52.126;5.596;2024-01-30T00:20:07;9.98;;;9.18;;
17564;SDS011;62994;52.126;5.596;2024-01-30T00:22:34;11.23;;;10.32;;
17564;SDS011;62994;52.126;5.596;2024-01-30T00:25:03;10.88;;;9.73;;
17564;SDS011;62994;52.126;5.596;2024-01-30T00:27:30;10.85;;;9.75;;
17564;SDS011;62994;52.126;5.596;2024-01-30T00:29:57;11.30;;;10.20;;
17564;SDS011;62994;52.126;5.596;2024-01-30T00:32:24;10.40;;;9.27;;
17564;SDS011;62994;52.126;5.596;2024-01-30T00:34:51;10.30;;;9.05;;
17564;SDS011;62994;52.126;5.596;2024-01-30T00:37:18;10.98;;;9.95;;
17564;SDS011;62994;52.126;5.596;2024-01-30T00:39:45;10.80;;;9.90;;
17564;SDS011;62994;52.126;5.596;2024-01-30T00:42:13;11.50;;;10.60;;
17564;SDS011;62994;52.126;5.596;2024-01-30T00:44:40;11.40;;;10.50;;
17564;SDS011;62994;52.126;5.596;2024-01-30T00:47:07;14.02;;;9.63;;
17564;SDS011;62994;52.126;5.596;2024-01-30T00:49:35;10.95;;;9.95;;
17564;SDS011;62994;52.126;5.596;2024-01-30T00:52:02;15.55;;;10.60;;
17564;SDS011;62994;52.126;5.596;2024-01-30T00:54:30;10.82;;;9.73;;
17564;SDS011;62994;52.126;5.596;2024-01-30T00:56:57;10.32;;;9.32;;
17564;SDS011;62994;52.126;5.596;2024-01-30T00:59:25;14.55;;;9.57;;
17564;SDS011;62994;52.126;5.596;2024-01-30T01:01:52;11.18;;;10.00;;
17564;SDS011;62994;52.126;5.596;2024-01-30T01:04:19;10.65;;;9.60;;
17564;SDS011;62994;52.126;5.596;2024-01-30T01:06:47;12.75;;;9.10;;
17564;SDS011;62994;52.126;5.596;2024-01-30T01:09:14;10.80;;;9.75;;
17564;SDS011;62994;52.126;5.596;2024-01-30T01:11:41;9.98;;;9.07;;
17564;SDS011;62994;52.126;5.596;2024-01-30T01:14:08;10.52;;;9.52;;
17564;SDS011;62994;52.126;5.596;2024-01-30T01:16:36;11.13;;;9.65;;
17564;SDS011;62994;52.126;5.596;2024-01-30T01:19:03;10.82;;;9.85;;
17564;SDS011;62994;52.126;5.596;2024-01-30T01:21:30;9.73;;;9.00;;
17564;SDS011;62994;52.126;5.596;2024-01-30T01:23:57;9.45;;;8.65;;
17564;SDS011;62994;52.126;5.596;2024-01-30T01:26:24;9.40;;;8.68;;
17564;SDS011;62994;52.126;5.596;2024-01-30T01:28:51;12.57;;;8.77;;
17564;SDS011;62994;52.126;5.596;2024-01-30T01:31:18;10.23;;;8.57;;
17564;SDS011;62994;52.126;5.596;2024-01-30T01:33:49;9.20;;;8.45;;
17564;SDS011;62994;52.126;5.596;2024-01-30T01:36:16;9.95;;;9.00;;
17564;SDS011;62994;52.126;5.596;2024-01-30T01:38:43;9.57;;;8.75;;
17564;SDS011;62994;52.126;5.596;2024-01-30T01:41:10;9.10;;;8.20;;
17564;SDS011;62994;52.126;5.596;2024-01-30T01:43:36;10.13;;;9.07;;
17564;SDS011;62994;52.126;5.596;2024-01-30T01:46:04;9.48;;;8.70;;
17564;SDS011;62994;52.126;5.596;2024-01-30T01:48:32;9.45;;;8.65;;
17564;SDS011;62994;52.126;5.596;2024-01-30T01:51:00;9.43;;;8.52;;
17564;SDS011;62994;52.126;5.596;2024-01-30T01:53:28;9.30;;;8.48;;
17564;SDS011;62994;52.126;5.596;2024-01-30T01:55:55;9.45;;;8.75;;
17564;SDS011;62994;52.126;5.596;2024-01-30T01:58:22;9.23;;;8.52;;
17564;SDS011;62994;52.126;5.596;2024-01-30T02:00:53;10.30;;;9.30;;
17564;SDS011;62994;52.126;5.596;2024-01-30T02:03:20;17.13;;;8.60;;
17564;SDS011;62994;52.126;5.596;2024-01-30T02:05:47;9.48;;;8.60;;
17564;SDS011;62994;52.126;5.596;2024-01-30T02:08:16;7.97;;;7.45;;
17564;SDS011;62994;52.126;5.596;2024-01-30T02:10:43;11.65;;;8.40;;
17564;SDS011;62994;52.126;5.596;2024-01-30T02:13:10;8.80;;;7.88;;
17564;SDS011;62994;52.126;5.596;2024-01-30T02:15:37;9.60;;;8.90;;
17564;SDS011;62994;52.126;5.596;2024-01-30T02:18:04;8.90;;;8.13;;
17564;SDS011;62994;52.126;5.596;2024-01-30T02:20:31;8.55;;;7.80;;
17564;SDS011;62994;52.126;5.596;2024-01-30T02:23:03;9.38;;;8.35;;
17564;SDS011;62994;52.126;5.596;2024-01-30T02:25:31;11.70;;;8.23;;
17564;SDS011;62994;52.126;5.596;2024-01-30T02:27:59;9.20;;;8.38;;
17564;SDS011;62994;52.126;5.596;2024-01-30T02:30:26;8.80;;;8.10;;
17564;SDS011;62994;52.126;5.596;2024-01-30T02:32:53;9.02;;;8.07;;
17564;SDS011;62994;52.126;5.596;2024-01-30T02:35:20;8.48;;;7.78;;
17564;SDS011;62994;52.126;5.596;2024-01-30T02:37:47;10.38;;;8.85;;
17564;SDS011;62994;52.126;5.596;2024-01-30T02:40:15;8.85;;;8.05;;
17564;SDS011;62994;52.126;5.596;2024-01-30T02:42:42;10.02;;;8.57;;
17564;SDS011;62994;52.126;5.596;2024-01-30T02:45:10;9.05;;;8.40;;
17564;SDS011;62994;52.126;5.596;2024-01-30T02:47:38;9.68;;;8.40;;
17564;SDS011;62994;52.126;5.596;2024-01-30T02:50:05;9.77;;;8.77;;
17564;SDS011;62994;52.126;5.596;2024-01-30T02:52:33;8.23;;;7.68;;
17564;SDS011;62994;52.126;5.596;2024-01-30T02:55:00;9.00;;;8.30;;
17564;SDS011;62994;52.126;5.596;2024-01-30T02:57:28;9.48;;;8.57;;
17564;SDS011;62994;52.126;5.596;2024-01-30T02:59:55;8.50;;;7.80;;
17564;SDS011;62994;52.126;5.596;2024-01-30T03:02:22;8.50;;;7.60;;
17564;SDS011;62994;52.126;5.596;2024-01-30T03:04:49;8.88;;;8.05;;
17564;SDS011;62994;52.126;5.596;2024-01-30T03:07:16;10.77;;;8.45;;
17564;SDS011;62994;52.126;5.596;2024-01-30T03:09:43;9.00;;;8.35;;
17564;SDS011;62994;52.126;5.596;2024-01-30T03:12:11;8.75;;;8.05;;
17564;SDS011;62994;52.126;5.596;2024-01-30T03:14:39;8.77;;;8.00;;
17564;SDS011;62994;52.126;5.596;2024-01-30T03:17:06;8.40;;;7.80;;
17564;SDS011;62994;52.126;5.596;2024-01-30T03:19:33;9.27;;;8.30;;
17564;SDS011;62994;52.126;5.596;2024-01-30T03:22:00;9.15;;;8.40;;
17564;SDS011;62994;52.126;5.596;2024-01-30T03:24:27;7.78;;;7.10;;
17564;SDS011;62994;52.126;5.596;2024-01-30T03:26:54;9.35;;;8.50;;
17564;SDS011;62994;52.126;5.596;2024-01-30T03:29:21;8.23;;;7.72;;
17564;SDS011;62994;52.126;5.596;2024-01-30T03:31:49;9.15;;;8.40;;
17564;SDS011;62994;52.126;5.596;2024-01-30T03:34:16;7.55;;;7.15;;
17564;SDS011;62994;52.126;5.596;2024-01-30T03:36:43;8.88;;;8.02;;
17564;SDS011;62994;52.126;5.596;2024-01-30T03:39:10;8.20;;;7.40;;
17564;SDS011;62994;52.126;5.596;2024-01-30T03:41:37;8.57;;;7.88;;
17564;SDS011;62994;52.126;5.596;2024-01-30T03:44:04;13.35;;;8.07;;
17564;SDS011;62994;52.126;5.596;2024-01-30T03:46:32;8.40;;;7.75;;
17564;SDS011;62994;52.126;5.596;2024-01-30T03:49:00;8.20;;;7.30;;
17564;SDS011;62994;52.126;5.596;2024-01-30T03:51:27;8.80;;;8.15;;
17564;SDS011;62994;52.126;5.596;2024-01-30T03:53:54;10.18;;;7.80;;
17564;SDS011;62994;52.126;5.596;2024-01-30T03:56:21;8.63;;;7.90;;
17564;SDS011;62994;52.126;5.596;2024-01-30T03:58:49;8.43;;;7.70;;
17564;SDS011;62994;52.126;5.596;2024-01-30T04:01:16;8.73;;;8.10;;
17564;SDS011;62994;52.126;5.596;2024-01-30T04:03:44;7.75;;;7.15;;
17564;SDS011;62994;52.126;5.596;2024-01-30T04:06:12;8.25;;;7.55;;
17564;SDS011;62994;52.126;5.596;2024-01-30T04:08:39;8.90;;;8.18;;
17564;SDS011;62994;52.126;5.596;2024-01-30T04:11:06;8.60;;;7.82;;
17564;SDS011;62994;52.126;5.596;2024-01-30T04:13:32;9.60;;;8.60;;
17564;SDS011;62994;52.126;5.596;2024-01-30T04:15:59;9.70;;;7.85;;
17564;SDS011;62994;52.126;5.596;2024-01-30T04:18:27;8.52;;;7.93;;
17564;SDS011;62994;52.126;5.596;2024-01-30T04:20:54;9.00;;;8.10;;
17564;SDS011;62994;52.126;5.596;2024-01-30T04:23:23;9.30;;;8.40;;
17564;SDS011;62994;52.126;5.596;2024-01-30T04:25:50;8.27;;;7.63;;
17564;SDS011;62994;52.126;5.596;2024-01-30T04:28:16;8.27;;;7.68;;
17564;SDS011;62994;52.126;5.596;2024-01-30T04:30:43;8.65;;;7.82;;
17564;SDS011;62994;52.126;5.596;2024-01-30T04:33:10;9.07;;;8.38;;
17564;SDS011;62994;52.126;5.596;2024-01-30T04:35:37;9.30;;;7.85;;
17564;SDS011;62994;52.126;5.596;2024-01-30T04:38:04;8.65;;;7.82;;
17564;SDS011;62994;52.126;5.596;2024-01-30T04:40:33;8.32;;;7.43;;
17564;SDS011;62994;52.126;5.596;2024-01-30T04:43:00;8.27;;;7.72;;
17564;SDS011;62994;52.126;5.596;2024-01-30T04:45:27;8.65;;;8.02;;
17564;SDS011;62994;52.126;5.596;2024-01-30T04:47:54;8.18;;;6.72;;
17564;SDS011;62994;52.126;5.596;2024-01-30T04:50:21;13.68;;;8.45;;
17564;SDS011;62994;52.126;5.596;2024-01-30T04:52:48;7.75;;;7.07;;
17564;SDS011;62994;52.126;5.596;2024-01-30T04:55:15;8.05;;;7.45;;
17564;SDS011;62994;52.126;5.596;2024-01-30T04:57:43;8.40;;;7.70;;
17564;SDS011;62994;52.126;5.596;2024-01-30T05:00:10;7.93;;;7.25;;
17564;SDS011;62994;52.126;5.596;2024-01-30T05:02:38;8.02;;;7.53;;
17564;SDS011;62994;52.126;5.596;2024-01-30T05:05:05;8.18;;;7.68;;
17564;SDS011;62994;52.126;5.596;2024-01-30T05:07:33;8.63;;;7.88;;
17564;SDS011;62994;52.126;5.596;2024-01-30T05:10:00;8.43;;;7.45;;
17564;SDS011;62994;52.126;5.596;2024-01-30T05:12:28;8.40;;;7.60;;
17564;SDS011;62994;52.126;5.596;2024-01-30T05:14:56;8.27;;;7.57;;
17564;SDS011;62994;52.126;5.596;2024-01-30T05:17:23;8.95;;;8.05;;
17564;SDS011;62994;52.126;5.596;2024-01-30T05:19:50;8.10;;;7.43;;
17564;SDS011;62994;52.126;5.596;2024-01-30T05:22:17;7.63;;;6.90;;
17564;SDS011;62994;52.126;5.596;2024-01-30T05:24:44;8.93;;;8.10;;
17564;SDS011;62994;52.126;5.596;2024-01-30T05:27:11;8.60;;;7.78;;
17564;SDS011;62994;52.126;5.596;2024-01-30T05:29:39;8.43;;;7.82;;
17564;SDS011;62994;52.126;5.596;2024-01-30T05:32:08;11.88;;;7.65;;
17564;SDS011;62994;52.126;5.596;2024-01-30T05:34:35;8.52;;;7.65;;
17564;SDS011;62994;52.126;5.596;2024-01-30T05:37:03;7.97;;;7.25;;
17564;SDS011;62994;52.126;5.596;2024-01-30T05:39:30;7.85;;;7.22;;
17564;SDS011;62994;52.126;5.596;2024-01-30T05:41:58;8.50;;;7.90;;
17564;SDS011;62994;52.126;5.596;2024-01-30T05:44:25;8.05;;;7.25;;
17564;SDS011;62994;52.126;5.596;2024-01-30T05:46:52;13.25;;;7.97;;
17564;SDS011;62994;52.126;5.596;2024-01-30T05:49:22;8.02;;;7.20;;
17564;SDS011;62994;52.126;5.596;2024-01-30T05:51:49;8.00;;;7.45;;
17564;SDS011;62994;52.126;5.596;2024-01-30T05:54:16;7.75;;;7.25;;
17564;SDS011;62994;52.126;5.596;2024-01-30T05:56:43;8.40;;;7.70;;
17564;SDS011;62994;52.126;5.596;2024-01-30T05:59:10;7.65;;;7.00;;
17564;SDS011;62994;52.126;5.596;2024-01-30T06:01:37;8.45;;;7.55;;
17564;SDS011;62994;52.126;5.596;2024-01-30T06:04:04;8.02;;;7.32;;
17564;SDS011;62994;52.126;5.596;2024-01-30T06:06:32;7.88;;;7.32;;
17564;SDS011;62994;52.126;5.596;2024-01-30T06:08:59;7.90;;;7.40;;
17564;SDS011;62994;52.126;5.596;2024-01-30T06:11:26;8.52;;;7.63;;
17564;SDS011;62994;52.126;5.596;2024-01-30T06:13:53;9.15;;;7.85;;
17564;SDS011;62994;52.126;5.596;2024-01-30T06:16:20;7.70;;;7.03;;
17564;SDS011;62994;52.126;5.596;2024-01-30T06:18:47;8.20;;;7.38;;
17564;SDS011;62994;52.126;5.596;2024-01-30T06:21:14;7.53;;;7.00;;
17564;SDS011;62994;52.126;5.596;2024-01-30T06:23:43;8.10;;;7.38;;
17564;SDS011;62994;52.126;5.596;2024-01-30T06:26:10;8.05;;;7.25;;
17564;SDS011;62994;52.126;5.596;2024-01-30T06:28:37;7.40;;;6.80;;
17564;SDS011;62994;52.126;5.596;2024-01-30T06:31:04;7.57;;;7.07;;
17564;SDS011;62994;52.126;5.596;2024-01-30T06:33:31;10.00;;;6.97;;
17564;SDS011;62994;52.126;5.596;2024-01-30T06:35:58;7.65;;;7.05;;
17564;SDS011;62994;52.126;5.596;2024-01-30T06:38:25;8.18;;;7.38;;
17564;SDS011;62994;52.126;5.596;2024-01-30T06:40:54;7.95;;;7.10;;
17564;SDS011;62994;52.126;5.596;2024-01-30T06:43:21;7.60;;;6.90;;
17564;SDS011;62994;52.126;5.596;2024-01-30T06:45:48;7.68;;;7.07;;
17564;SDS011;62994;52.126;5.596;2024-01-30T06:48:17;8.15;;;7.55;;
17564;SDS011;62994;52.126;5.596;2024-01-30T06:50:44;7.63;;;6.97;;
17564;SDS011;62994;52.126;5.596;2024-01-30T06:53:11;7.60;;;7.00;;
17564;SDS011;62994;52.126;5.596;2024-01-30T06:55:38;7.93;;;7.32;;
17564;SDS011;62994;52.126;5.596;2024-01-30T06:58:07;9.05;;;7.38;;
17564;SDS011;62994;52.126;5.596;2024-01-30T07:00:34;7.50;;;6.82;;
17564;SDS011;62994;52.126;5.596;2024-01-30T07:03:01;8.23;;;6.90;;
17564;SDS011;62994;52.126;5.596;2024-01-30T07:05:28;7.45;;;6.95;;
17564;SDS011;62994;52.126;5.596;2024-01-30T07:07:58;7.60;;;7.00;;
17564;SDS011;62994;52.126;5.596;2024-01-30T07:10:25;7.82;;;6.57;;
17564;SDS011;62994;52.126;5.596;2024-01-30T07:12:52;7.40;;;6.85;;
17564;SDS011;62994;52.126;5.596;2024-01-30T07:15:20;7.55;;;6.88;;
17564;SDS011;62994;52.126;5.596;2024-01-30T07:17:47;7.55;;;7.07;;
17564;SDS011;62994;52.126;5.596;2024-01-30T07:20:14;9.50;;;7.93;;
17564;SDS011;62994;52.126;5.596;2024-01-30T07:22:45;11.32;;;6.32;;
17564;SDS011;62994;52.126;5.596;2024-01-30T07:25:15;7.32;;;6.82;;
17564;SDS011;62994;52.126;5.596;2024-01-30T07:27:42;7.82;;;7.28;;
17564;SDS011;62994;52.126;5.596;2024-01-30T07:30:12;7.07;;;6.47;;
17564;SDS011;62994;52.126;5.596;2024-01-30T07:32:43;8.07;;;7.55;;
17564;SDS011;62994;52.126;5.596;2024-01-30T07:35:10;8.10;;;7.30;;
17564;SDS011;62994;52.126;5.596;2024-01-30T07:37:37;7.65;;;7.15;;
17564;SDS011;62994;52.126;5.596;2024-01-30T07:40:05;8.07;;;6.90;;
17564;SDS011;62994;52.126;5.596;2024-01-30T07:42:36;7.30;;;6.70;;
17564;SDS011;62994;52.126;5.596;2024-01-30T07:45:04;7.47;;;6.43;;
17564;SDS011;62994;52.126;5.596;2024-01-30T07:47:31;7.05;;;6.45;;
17564;SDS011;62994;52.126;5.596;2024-01-30T07:50:00;7.63;;;6.93;;
17564;SDS011;62994;52.126;5.596;2024-01-30T07:52:27;7.47;;;6.88;;
17564;SDS011;62994;52.126;5.596;2024-01-30T07:54:55;7.53;;;6.93;;
17564;SDS011;62994;52.126;5.596;2024-01-30T07:57:22;7.60;;;6.80;;
17564;SDS011;62994;52.126;5.596;2024-01-30T07:59:48;7.97;;;7.20;;
17564;SDS011;62994;52.126;5.596;2024-01-30T08:02:15;7.75;;;7.00;;
17564;SDS011;62994;52.126;5.596;2024-01-30T08:04:42;8.40;;;7.57;;
17564;SDS011;62994;52.126;5.596;2024-01-30T08:07:15;10.48;;;7.28;;
17564;SDS011;62994;52.126;5.596;2024-01-30T08:09:47;7.30;;;6.70;;
17564;SDS011;62994;52.126;5.596;2024-01-30T08:12:14;7.80;;;7.18;;
17564;SDS011;62994;52.126;5.596;2024-01-30T08:14:41;7.72;;;6.93;;
17564;SDS011;62994;52.126;5.596;2024-01-30T08:17:08;7.65;;;7.15;;
17564;SDS011;62994;52.126;5.596;2024-01-30T08:19:35;8.65;;;7.15;;
17564;SDS011;62994;52.126;5.596;2024-01-30T08:22:05;8.73;;;7.80;;
17564;SDS011;62994;52.126;5.596;2024-01-30T08:24:33;8.45;;;7.75;;
17564;SDS011;62994;52.126;5.596;2024-01-30T08:27:00;7.63;;;6.93;;
17564;SDS011;62994;52.126;5.596;2024-01-30T08:29:27;10.35;;;7.30;;
17564;SDS011;62994;52.126;5.596;2024-01-30T08:31:55;8.38;;;7.63;;
17564;SDS011;62994;52.126;5.596;2024-01-30T08:34:24;8.77;;;6.85;;
17564;SDS011;62994;52.126;5.596;2024-01-30T08:36:51;7.65;;;6.95;;
17564;SDS011;62994;52.126;5.596;2024-01-30T08:39:18;7.85;;;7.07;;
17564;SDS011;62994;52.126;5.596;2024-01-30T08:41:46;7.47;;;6.88;;
17564;SDS011;62994;52.126;5.596;2024-01-30T08:44:13;9.52;;;6.72;;
17564;SDS011;62994;52.126;5.596;2024-01-30T08:46:40;7.35;;;6.85;;
17564;SDS011;62994;52.126;5.596;2024-01-30T08:49:07;8.35;;;7.28;;
17564;SDS011;62994;52.126;5.596;2024-01-30T08:51:34;7.90;;;7.20;;
17564;SDS011;62994;52.126;5.596;2024-01-30T08:54:01;8.20;;;6.82;;
17564;SDS011;62994;52.126;5.596;2024-01-30T08:56:28;9.40;;;7.60;;
17564;SDS011;62994;52.126;5.596;2024-01-30T08:58:57;7.63;;;6.78;;
17564;SDS011;62994;52.126;5.596;2024-01-30T09:01:24;7.25;;;6.65;;
17564;SDS011;62994;52.126;5.596;2024-01-30T09:03:51;7.75;;;7.05;;
17564;SDS011;62994;52.126;5.596;2024-01-30T09:06:18;7.53;;;6.72;;
17564;SDS011;62994;52.126;5.596;2024-01-30T09:08:45;13.45;;;6.80;;
17564;SDS011;62994;52.126;5.596;2024-01-30T09:11:13;8.10;;;7.22;;
17564;SDS011;62994;52.126;5.596;2024-01-30T09:13:41;7.13;;;6.57;;
17564;SDS011;62994;52.126;5.596;2024-01-30T09:16:10;7.53;;;6.90;;
17564;SDS011;62994;52.126;5.596;2024-01-30T09:18:37;7.40;;;6.70;;
17564;SDS011;62994;52.126;5.596;2024-01-30T09:21:04;9.65;;;7.35;;
17564;SDS011;62994;52.126;5.596;2024-01-30T09:23:31;7.00;;;6.40;;
17564;SDS011;62994;52.126;5.596;2024-01-30T09:25:58;9.27;;;7.25;;
17564;SDS011;62994;52.126;5.596;2024-01-30T09:28:26;8.07;;;7.35;;
17564;SDS011;62994;52.126;5.596;2024-01-30T09:30:53;7.68;;;7.10;;
17564;SDS011;62994;52.126;5.596;2024-01-30T09:33:21;8.65;;;7.72;;
17564;SDS011;62994;52.126;5.596;2024-01-30T09:35:48;7.65;;;6.97;;
17564;SDS011;62994;52.126;5.596;2024-01-30T09:38:16;7.68;;;7.13;;
17564;SDS011;62994;52.126;5.596;2024-01-30T09:40:43;11.00;;;7.57;;
17564;SDS011;62994;52.126;5.596;2024-01-30T09:43:14;9.60;;;7.28;;
17564;SDS011;62994;52.126;5.596;2024-01-30T09:45:48;9.63;;;7.53;;
17564;SDS011;62994;52.126;5.596;2024-01-30T09:48:16;7.85;;;6.97;;
17564;SDS011;62994;52.126;5.596;2024-01-30T09:50:45;8.07;;;7.10;;
17564;SDS011;62994;52.126;5.596;2024-01-30T09:53:12;10.77;;;8.32;;
17564;SDS011;62994;52.126;5.596;2024-01-30T09:55:40;8.45;;;7.35;;
17564;SDS011;62994;52.126;5.596;2024-01-30T09:58:09;11.10;;;7.88;;
17564;SDS011;62994;52.126;5.596;2024-01-30T10:00:38;7.50;;;6.78;;
17564;SDS011;62994;52.126;5.596;2024-01-30T10:03:05;7.93;;;7.22;;
17564;SDS011;62994;52.126;5.596;2024-01-30T10:05:32;10.20;;;7.55;;
17564;SDS011;62994;52.126;5.596;2024-01-30T10:08:05;8.50;;;7.32;;
17564;SDS011;62994;52.126;5.596;2024-01-30T10:10:33;9.32;;;8.43;;
17564;SDS011;62994;52.126;5.596;2024-01-30T10:13:00;10.30;;;7.78;;
17564;SDS011;62994;52.126;5.596;2024-01-30T10:15:27;11.43;;;7.63;;
17564;SDS011;62994;52.126;5.596;2024-01-30T10:17:55;9.35;;;8.10;;
17564;SDS011;62994;52.126;5.596;2024-01-30T10:20:22;10.38;;;7.40;;
17564;SDS011;62994;52.126;5.596;2024-01-30T10:22:51;10.57;;;7.50;;
17564;SDS011;62994;52.126;5.596;2024-01-30T10:25:19;7.85;;;6.60;;
17564;SDS011;62994;52.126;5.596;2024-01-30T10:27:52;7.63;;;6.47;;
17564;SDS011;62994;52.126;5.596;2024-01-30T10:30:19;6.63;;;6.05;;
17564;SDS011;62994;52.126;5.596;2024-01-30T10:32:47;14.65;;;6.82;;
17564;SDS011;62994;52.126;5.596;2024-01-30T10:35:14;7.00;;;6.43;;
17564;SDS011;62994;52.126;5.596;2024-01-30T10:37:42;6.90;;;6.30;;
17564;SDS011;62994;52.126;5.596;2024-01-30T10:40:11;8.75;;;6.65;;
17564;SDS011;62994;52.126;5.596;2024-01-30T10:42:43;10.30;;;6.82;;
17564;SDS011;62994;52.126;5.596;2024-01-30T10:45:12;6.63;;;5.97;;
17564;SDS011;62994;52.126;5.596;2024-01-30T10:47:43;6.60;;;6.05;;
17564;SDS011;62994;52.126;5.596;2024-01-30T10:50:14;14.50;;;7.28;;
17564;SDS011;62994;52.126;5.596;2024-01-30T10:52:42;8.43;;;6.43;;
17564;SDS011;62994;52.126;5.596;2024-01-30T10:55:09;7.70;;;7.03;;
17564;SDS011;62994;52.126;5.596;2024-01-30T10:57:37;7.35;;;6.68;;
17564;SDS011;62994;52.126;5.596;2024-01-30T11:00:07;7.10;;;6.43;;
17564;SDS011;62994;52.126;5.596;2024-01-30T11:02:36;9.20;;;6.28;;
17564;SDS011;62994;52.126;5.596;2024-01-30T11:05:05;6.60;;;5.75;;
17564;SDS011;62994;52.126;5.596;2024-01-30T11:07:35;8.40;;;6.47;;
17564;SDS011;62994;52.126;5.596;2024-01-30T11:10:06;7.70;;;6.05;;
17564;SDS011;62994;52.126;5.596;2024-01-30T11:12:38;7.97;;;6.32;;
17564;SDS011;62994;52.126;5.596;2024-01-30T11:15:11;13.25;;;7.13;;
17564;SDS011;62994;52.126;5.596;2024-01-30T11:17:41;9.43;;;6.22;;
17564;SDS011;62994;52.126;5.596;2024-01-30T11:20:09;6.32;;;5.82;;
17564;SDS011;62994;52.126;5.596;2024-01-30T11:22:40;9.88;;;6.15;;
17564;SDS011;62994;52.126;5.596;2024-01-30T11:25:11;9.32;;;5.97;;
17564;SDS011;62994;52.126;5.596;2024-01-30T11:27:39;6.53;;;5.95;;
17564;SDS011;62994;52.126;5.596;2024-01-30T11:30:07;8.77;;;5.72;;
17564;SDS011;62994;52.126;5.596;2024-01-30T11:32:39;6.88;;;6.28;;
17564;SDS011;62994;52.126;5.596;2024-01-30T11:35:06;8.38;;;5.60;;
17564;SDS011;62994;52.126;5.596;2024-01-30T11:37:36;7.15;;;5.00;;
17564;SDS011;62994;52.126;5.596;2024-01-30T11:40:04;5.57;;;5.05;;
17564;SDS011;62994;52.126;5.596;2024-01-30T11:42:33;5.32;;;4.70;;
17564;SDS011;62994;52.126;5.596;2024-01-30T11:45:05;10.32;;;4.60;;
17564;SDS011;62994;52.126;5.596;2024-01-30T11:47:35;9.50;;;3.97;;
17564;SDS011;62994;52.126;5.596;2024-01-30T11:50:03;7.70;;;3.80;;
17564;SDS011;62994;52.126;5.596;2024-01-30T11:52:31;8.23;;;4.25;;
17564;SDS011;62994;52.126;5.596;2024-01-30T11:54:59;3.80;;;3.47;;
17564;SDS011;62994;52.126;5.596;2024-01-30T11:57:27;4.43;;;3.35;;
17564;SDS011;62994;52.126;5.596;2024-01-30T11:59:55;5.85;;;3.50;;
17564;SDS011;62994;52.126;5.596;2024-01-30T12:02:21;3.33;;;2.88;;
17564;SDS011;62994;52.126;5.596;2024-01-30T12:04:50;4.03;;;2.97;;
17564;SDS011;62994;52.126;5.596;2024-01-30T12:07:17;5.85;;;3.10;;
17564;SDS011;62994;52.126;5.596;2024-01-30T12:09:51;3.63;;;2.78;;
17564;SDS011;62994;52.126;5.596;2024-01-30T12:12:19;5.22;;;2.50;;
17564;SDS011;62994;52.126;5.596;2024-01-30T12:14:48;5.45;;;2.30;;
17564;SDS011;62994;52.126;5.596;2024-01-30T12:17:22;3.33;;;2.67;;
17564;SDS011;62994;52.126;5.596;2024-01-30T12:19:52;4.18;;;2.25;;
17564;SDS011;62994;52.126;5.596;2024-01-30T12:22:29;2.65;;;2.17;;
17564;SDS011;62994;52.126;5.596;2024-01-30T12:24:57;4.95;;;2.15;;
17564;SDS011;62994;52.126;5.596;2024-01-30T12:27:24;2.53;;;2.10;;
17564;SDS011;62994;52.126;5.596;2024-01-30T12:29:55;3.05;;;2.20;;
17564;SDS011;62994;52.126;5.596;2024-01-30T12:32:23;2.05;;;1.48;;
17564;SDS011;62994;52.126;5.596;2024-01-30T12:34:54;2.47;;;1.55;;
17564;SDS011;62994;52.126;5.596;2024-01-30T12:37:21;2.60;;;2.42;;
17564;SDS011;62994;52.126;5.596;2024-01-30T12:39:50;1.98;;;1.88;;
17564;SDS011;62994;52.126;5.596;2024-01-30T12:42:19;2.22;;;2.03;;
17564;SDS011;62994;52.126;5.596;2024-01-30T12:44:46;2.05;;;1.95;;
17564;SDS011;62994;52.126;5.596;2024-01-30T12:47:14;2.85;;;1.83;;
17564;SDS011;62994;52.126;5.596;2024-01-30T12:49:42;2.67;;;2.40;;
17564;SDS011;62994;52.126;5.596;2024-01-30T12:52:11;3.05;;;2.70;;
17564;SDS011;62994;52.126;5.596;2024-01-30T12:54:39;3.20;;;2.90;;
17564;SDS011;62994;52.126;5.596;2024-01-30T12:57:06;3.20;;;3.00;;
17564;SDS011;62994;52.126;5.596;2024-01-30T12:59:33;2.67;;;2.22;;
17564;SDS011;62994;52.126;5.596;2024-01-30T13:02:00;6.63;;;2.25;;
17564;SDS011;62994;52.126;5.596;2024-01-30T13:04:28;4.97;;;3.42;;
17564;SDS011;62994;52.126;5.596;2024-01-30T13:06:55;6.07;;;2.10;;
17564;SDS011;62994;52.126;5.596;2024-01-30T13:09:24;5.43;;;2.22;;
17564;SDS011;62994;52.126;5.596;2024-01-30T13:11:51;5.50;;;2.67;;
17564;SDS011;62994;52.126;5.596;2024-01-30T13:14:18;2.25;;;2.05;;
17564;SDS011;62994;52.126;5.596;2024-01-30T13:16:45;5.50;;;2.58;;
17564;SDS011;62994;52.126;5.596;2024-01-30T13:19:12;3.75;;;2.47;;
17564;SDS011;62994;52.126;5.596;2024-01-30T13:21:39;2.33;;;2.17;;
17564;SDS011;62994;52.126;5.596;2024-01-30T13:24:06;3.03;;;2.13;;
17564;SDS011;62994;52.126;5.596;2024-01-30T13:26:35;2.80;;;2.30;;
17564;SDS011;62994;52.126;5.596;2024-01-30T13:29:02;3.47;;;2.22;;
17564;SDS011;62994;52.126;5.596;2024-01-30T13:31:29;3.30;;;1.85;;
17564;SDS011;62994;52.126;5.596;2024-01-30T13:33:56;4.32;;;2.15;;
17564;SDS011;62994;52.126;5.596;2024-01-30T13:36:23;5.78;;;2.80;;
17564;SDS011;62994;52.126;5.596;2024-01-30T13:38:51;2.60;;;2.40;;
17564;SDS011;62994;52.126;5.596;2024-01-30T13:41:18;3.65;;;2.65;;
17564;SDS011;62994;52.126;5.596;2024-01-30T13:43:47;3.88;;;2.83;;
17564;SDS011;62994;52.126;5.596;2024-01-30T13:46:15;3.53;;;2.85;;
17564;SDS011;62994;52.126;5.596;2024-01-30T13:48:42;7.22;;;3.00;;
17564;SDS011;62994;52.126;5.596;2024-01-30T13:51:09;3.08;;;2.78;;
17564;SDS011;62994;52.126;5.596;2024-01-30T13:53:38;2.70;;;2.30;;
17564;SDS011;62994;52.126;5.596;2024-01-30T13:56:05;2.05;;;1.95;;
17564;SDS011;62994;52.126;5.596;2024-01-30T13:58:32;2.67;;;1.52;;
17564;SDS011;62994;52.126;5.596;2024-01-30T14:01:02;3.78;;;1.60;;
17564;SDS011;62994;52.126;5.596;2024-01-30T14:03:30;1.27;;;1.00;;
17564;SDS011;62994;52.126;5.596;2024-01-30T14:05:57;2.17;;;1.10;;
17564;SDS011;62994;52.126;5.596;2024-01-30T14:08:24;2.38;;;1.48;;
17564;SDS011;62994;52.126;5.596;2024-01-30T14:10:53;2.95;;;1.13;;
17564;SDS011;62994;52.126;5.596;2024-01-30T14:13:21;1.58;;;1.20;;
17564;SDS011;62994;52.126;5.596;2024-01-30T14:15:50;1.63;;;0.95;;
17564;SDS011;62994;52.126;5.596;2024-01-30T14:18:23;1.30;;;1.10;;
17564;SDS011;62994;52.126;5.596;2024-01-30T14:20:50;1.95;;;0.85;;
17564;SDS011;62994;52.126;5.596;2024-01-30T14:23:17;0.73;;;0.73;;
17564;SDS011;62994;52.126;5.596;2024-01-30T14:25:44;0.95;;;0.82;;
17564;SDS011;62994;52.126;5.596;2024-01-30T14:28:15;2.10;;;0.90;;
17564;SDS011;62994;52.126;5.596;2024-01-30T14:30:45;1.52;;;0.90;;
17564;SDS011;62994;52.126;5.596;2024-01-30T14:33:12;3.88;;;0.90;;
17564;SDS011;62994;52.126;5.596;2024-01-30T14:35:40;4.88;;;1.17;;
17564;SDS011;62994;52.126;5.596;2024-01-30T14:38:07;2.70;;;1.00;;
17564;SDS011;62994;52.126;5.596;2024-01-30T14:40:35;1.83;;;1.08;;
17564;SDS011;62994;52.126;5.596;2024-01-30T14:43:02;2.70;;;1.10;;
17564;SDS011;62994;52.126;5.596;2024-01-30T14:45:29;2.08;;;1.13;;
17564;SDS011;62994;52.126;5.596;2024-01-30T14:47:57;1.75;;;1.30;;